sensor_id;sensor_type;location;lat;lon;timestamp;pressure;altitude;pressure_sealevel;temperature;humidity
35918;BME280;22011;59.912;30.300;2023-05-08T00:01:44;103076.19;;;7.17;39.76
35918;BME280;22011;59.912;30.300;2023-05-08T00:04:12;103079.19;;;7.11;40.14
35918;BME280;22011;59.912;30.300;2023-05-08T00:06:39;103074.91;;;7.08;39.97
35918;BME280;22011;59.912;30.300;2023-05-08T00:09:07;103075.16;;;7.04;40.12
35918;BME280;22011;59.912;30.300;2023-05-08T00:11:36;103078.59;;;7.06;40.33
35918;BME280;22011;59.912;30.300;2023-05-08T00:14:03;103076.19;;;7.01;40.19
35918;BME280;22011;59.912;30.300;2023-05-08T00:16:31;103070.22;;;6.98;40.12
35918;BME280;22011;59.912;30.300;2023-05-08T00:18:58;103081.91;;;6.94;40.38
35918;BME280;22011;59.912;30.300;2023-05-08T00:21:26;103072.09;;;6.96;40.41
35918;BME280;22011;59.912;30.300;2023-05-08T00:23:54;103078.50;;;6.92;40.46
35918;BME280;22011;59.912;30.300;2023-05-08T00:26:22;103083.63;;;6.95;40.52
35918;BME280;22011;59.912;30.300;2023-05-08T00:28:50;103078.16;;;6.98;40.49
35918;BME280;22011;59.912;30.300;2023-05-08T00:31:18;103087.31;;;6.92;40.84
35918;BME280;22011;59.912;30.300;2023-05-08T00:33:45;103083.88;;;6.90;40.64
35918;BME280;22011;59.912;30.300;2023-05-08T00:36:13;103083.13;;;6.88;40.18
35918;BME280;22011;59.912;30.300;2023-05-08T00:38:40;103080.47;;;6.88;40.15
35918;BME280;22011;59.912;30.300;2023-05-08T00:41:08;103087.31;;;6.92;40.30
35918;BME280;22011;59.912;30.300;2023-05-08T00:43:36;103086.44;;;6.92;40.17
35918;BME280;22011;59.912;30.300;2023-05-08T00:46:06;103082.69;;;6.96;39.97
35918;BME280;22011;59.912;30.300;2023-05-08T00:48:35;103086.28;;;6.95;40.02
35918;BME280;22011;59.912;30.300;2023-05-08T00:51:05;103093.38;;;6.94;39.95
35918;BME280;22011;59.912;30.300;2023-05-08T00:53:35;103088.00;;;6.96;39.45
35918;BME280;22011;59.912;30.300;2023-05-08T00:56:04;103089.09;;;6.92;39.62
35918;BME280;22011;59.912;30.300;2023-05-08T00:58:32;103091.06;;;6.88;39.83
35918;BME280;22011;59.912;30.300;2023-05-08T01:00:59;103094.47;;;6.90;39.76
35918;BME280;22011;59.912;30.300;2023-05-08T01:03:28;103089.00;;;6.93;39.70
35918;BME280;22011;59.912;30.300;2023-05-08T01:05:57;103096.88;;;6.95;39.58
35918;BME280;22011;59.912;30.300;2023-05-08T01:08:24;103100.47;;;6.94;39.70
35918;BME280;22011;59.912;30.300;2023-05-08T01:10:57;103095.69;;;7.00;40.05
35918;BME280;22011;59.912;30.300;2023-05-08T01:13:39;103094.66;;;7.03;40.06
35918;BME280;22011;59.912;30.300;2023-05-08T01:16:13;103098.41;;;6.99;40.21
35918;BME280;22011;59.912;30.300;2023-05-08T01:18:49;103098.41;;;6.99;40.03
35918;BME280;22011;59.912;30.300;2023-05-08T01:21:24;103101.16;;;6.97;39.72
35918;BME280;22011;59.912;30.300;2023-05-08T01:24:15;103094.41;;;7.07;40.47
35918;BME280;22011;59.912;30.300;2023-05-08T01:27:11;103099.63;;;7.09;39.99
35918;BME280;22011;59.912;30.300;2023-05-08T01:32:55;103108.25;;;6.97;40.48
35918;BME280;22011;59.912;30.300;2023-05-08T01:35:29;103102.94;;;6.97;40.43
35918;BME280;22011;59.912;30.300;2023-05-08T01:38:04;103114.66;;;6.93;40.62
35918;BME280;22011;59.912;30.300;2023-05-08T01:40:36;103106.28;;;6.84;40.53
35918;BME280;22011;59.912;30.300;2023-05-08T01:43:12;103100.97;;;6.84;41.28
35918;BME280;22011;59.912;30.300;2023-05-08T01:45:44;103109.00;;;6.83;41.15
35918;BME280;22011;59.912;30.300;2023-05-08T01:48:18;103104.72;;;6.80;41.26
35918;BME280;22011;59.912;30.300;2023-05-08T01:50:48;103100.38;;;6.79;41.30
35918;BME280;22011;59.912;30.300;2023-05-08T01:53:22;103102.78;;;6.84;41.82
35918;BME280;22011;59.912;30.300;2023-05-08T01:55:54;103104.72;;;6.80;42.01
35918;BME280;22011;59.912;30.300;2023-05-08T01:58:23;103112.06;;;6.75;41.90
35918;BME280;22011;59.912;30.300;2023-05-08T02:00:53;103107.72;;;6.74;42.15
35918;BME280;22011;59.912;30.300;2023-05-08T02:03:23;103105.84;;;6.76;42.47
35918;BME280;22011;59.912;30.300;2023-05-08T02:05:54;103105.84;;;6.76;43.57
35918;BME280;22011;59.912;30.300;2023-05-08T02:08:23;103106.16;;;6.70;43.34
35918;BME280;22011;59.912;30.300;2023-05-08T02:10:51;103115.13;;;6.68;43.70
35918;BME280;22011;59.912;30.300;2023-05-08T02:13:20;103106.16;;;6.70;43.52
35918;BME280;22011;59.912;30.300;2023-05-08T02:15:50;103112.06;;;6.75;43.26
35918;BME280;22011;59.912;30.300;2023-05-08T02:18:24;103114.56;;;6.78;44.08
35918;BME280;22011;59.912;30.300;2023-05-08T02:20:53;103114.38;;;6.81;43.90
35918;BME280;22011;59.912;30.300;2023-05-08T02:23:22;103109.19;;;6.80;44.33
35918;BME280;22011;59.912;30.300;2023-05-08T02:25:51;103109.88;;;6.83;43.87
35918;BME280;22011;59.912;30.300;2023-05-08T02:28:20;103117.72;;;6.85;44.18
35918;BME280;22011;59.912;30.300;2023-05-08T02:30:49;103109.44;;;6.91;43.83
35918;BME280;22011;59.912;30.300;2023-05-08T02:33:18;103113.81;;;6.92;44.09
35918;BME280;22011;59.912;30.300;2023-05-08T02:35:48;103112.69;;;6.96;44.37
35918;BME280;22011;59.912;30.300;2023-05-08T02:38:18;103110.72;;;7.00;44.08
35918;BME280;22011;59.912;30.300;2023-05-08T02:40:49;103112.44;;;7.01;44.13
35918;BME280;22011;59.912;30.300;2023-05-08T02:43:19;103113.56;;;6.97;43.87
35918;BME280;22011;59.912;30.300;2023-05-08T02:45:49;103109.03;;;6.99;44.03
35918;BME280;22011;59.912;30.300;2023-05-08T02:48:22;103114.16;;;7.02;44.22
35918;BME280;22011;59.912;30.300;2023-05-08T02:50:59;103112.78;;;7.10;44.24
35918;BME280;22011;59.912;30.300;2023-05-08T02:53:34;103114.41;;;7.13;43.61
35918;BME280;22011;59.912;30.300;2023-05-08T02:56:08;103109.88;;;7.15;43.29
35918;BME280;22011;59.912;30.300;2023-05-08T02:58:41;103114.00;;;7.20;43.31
35918;BME280;22011;59.912;30.300;2023-05-08T03:01:15;103114.69;;;7.24;42.65
35918;BME280;22011;59.912;30.300;2023-05-08T03:03:53;103112.41;;;7.32;42.83
35918;BME280;22011;59.912;30.300;2023-05-08T03:06:32;103112.25;;;7.35;41.98
35918;BME280;22011;59.912;30.300;2023-05-08T03:09:02;103112.41;;;7.32;41.44
35918;BME280;22011;59.912;30.300;2023-05-08T03:11:37;103116.34;;;7.41;41.99
35918;BME280;22011;59.912;30.300;2023-05-08T03:14:10;103112.84;;;7.40;41.42
35918;BME280;22011;59.912;30.300;2023-05-08T03:16:40;103116.50;;;7.38;41.20
35918;BME280;22011;59.912;30.300;2023-05-08T03:19:14;103104.69;;;7.43;41.22
35918;BME280;22011;59.912;30.300;2023-05-08T03:21:46;103104.69;;;7.43;41.82
35918;BME280;22011;59.912;30.300;2023-05-08T03:24:16;103102.31;;;7.39;41.31
35918;BME280;22011;59.912;30.300;2023-05-08T03:26:46;103103.34;;;7.36;41.32
35918;BME280;22011;59.912;30.300;2023-05-08T03:29:14;103108.38;;;7.41;41.31
35918;BME280;22011;59.912;30.300;2023-05-08T03:31:43;103112.66;;;7.43;41.13
35918;BME280;22011;59.912;30.300;2023-05-08T03:34:11;103110.88;;;7.44;41.32
35918;BME280;22011;59.912;30.300;2023-05-08T03:36:39;103110.00;;;7.43;41.10
35918;BME280;22011;59.912;30.300;2023-05-08T03:39:09;103109.66;;;7.49;41.46
35918;BME280;22011;59.912;30.300;2023-05-08T03:41:36;103100.06;;;7.47;41.38
35918;BME280;22011;59.912;30.300;2023-05-08T03:44:04;103114.19;;;7.47;41.85
35918;BME280;22011;59.912;30.300;2023-05-08T03:46:34;103114.03;;;7.50;41.30
35918;BME280;22011;59.912;30.300;2023-05-08T03:49:03;103110.25;;;7.54;41.37
35918;BME280;22011;59.912;30.300;2023-05-08T03:51:32;103117.25;;;7.55;40.82
35918;BME280;22011;59.912;30.300;2023-05-08T03:54:02;103111.09;;;7.55;41.01
35918;BME280;22011;59.912;30.300;2023-05-08T03:56:32;103109.81;;;7.62;41.16
35918;BME280;22011;59.912;30.300;2023-05-08T03:59:06;103110.13;;;7.72;40.94
35918;BME280;22011;59.912;30.300;2023-05-08T04:01:38;103109.28;;;7.71;40.80
35918;BME280;22011;59.912;30.300;2023-05-08T04:04:12;103110.63;;;7.78;40.78
35918;BME280;22011;59.912;30.300;2023-05-08T04:06:45;103108.56;;;7.83;41.04
35918;BME280;22011;59.912;30.300;2023-05-08T04:09:23;103114.53;;;7.87;40.95
35918;BME280;22011;59.912;30.300;2023-05-08T04:12:01;103115.88;;;7.94;41.03
35918;BME280;22011;59.912;30.300;2023-05-08T04:14:34;103113.22;;;7.94;40.95
35918;BME280;22011;59.912;30.300;2023-05-08T04:17:05;103112.47;;;7.92;40.59
35918;BME280;22011;59.912;30.300;2023-05-08T04:19:37;103113.81;;;7.99;40.70
35918;BME280;22011;59.912;30.300;2023-05-08T04:22:07;103112.78;;;8.02;40.64
35918;BME280;22011;59.912;30.300;2023-05-08T04:24:41;103108.63;;;8.12;40.47
35918;BME280;22011;59.912;30.300;2023-05-08T04:27:11;103111.78;;;8.18;40.03
35918;BME280;22011;59.912;30.300;2023-05-08T04:29:39;103115.28;;;8.19;39.96
35918;BME280;22011;59.912;30.300;2023-05-08T04:32:07;103121.25;;;8.23;39.92
35918;BME280;22011;59.912;30.300;2023-05-08T04:34:36;103119.84;;;8.31;40.20
35918;BME280;22011;59.912;30.300;2023-05-08T04:37:05;103115.59;;;8.43;39.69
35918;BME280;22011;59.912;30.300;2023-05-08T04:39:33;103116.06;;;8.49;39.38
35918;BME280;22011;59.912;30.300;2023-05-08T04:42:00;103112.75;;;8.60;39.06
35918;BME280;22011;59.912;30.300;2023-05-08T04:44:34;103110.28;;;8.71;39.49
35918;BME280;22011;59.912;30.300;2023-05-08T04:47:02;103107.44;;;8.74;39.03
35918;BME280;22011;59.912;30.300;2023-05-08T04:49:29;103100.41;;;8.73;39.47
35918;BME280;22011;59.912;30.300;2023-05-08T04:51:56;103108.28;;;8.75;39.22
35918;BME280;22011;59.912;30.300;2023-05-08T04:54:24;103108.19;;;8.76;39.15
35918;BME280;22011;59.912;30.300;2023-05-08T04:56:51;103109.81;;;8.79;39.09
35918;BME280;22011;59.912;30.300;2023-05-08T04:59:19;103114.28;;;8.78;39.44
35918;BME280;22011;59.912;30.300;2023-05-08T05:01:48;103118.72;;;8.78;39.25
35918;BME280;22011;59.912;30.300;2023-05-08T05:04:15;103114.47;;;8.75;38.93
35918;BME280;22011;59.912;30.300;2023-05-08T05:06:43;103116.47;;;8.72;39.17
35918;BME280;22011;59.912;30.300;2023-05-08T05:09:11;103112.94;;;8.71;39.44
35918;BME280;22011;59.912;30.300;2023-05-08T05:11:39;103111.03;;;8.73;39.67
35918;BME280;22011;59.912;30.300;2023-05-08T05:14:06;103110.75;;;8.78;39.58
35918;BME280;22011;59.912;30.300;2023-05-08T05:16:34;103113.22;;;8.81;39.49
35918;BME280;22011;59.912;30.300;2023-05-08T05:19:03;103115.59;;;8.85;39.48
35918;BME280;22011;59.912;30.300;2023-05-08T05:21:31;103107.06;;;8.80;39.75
35918;BME280;22011;59.912;30.300;2023-05-08T05:23:59;103111.31;;;8.83;39.49
35918;BME280;22011;59.912;30.300;2023-05-08T05:26:26;103120.72;;;8.89;39.84
35918;BME280;22011;59.912;30.300;2023-05-08T05:28:54;103124.03;;;8.92;39.83
35918;BME280;22011;59.912;30.300;2023-05-08T05:31:21;103118.03;;;9.03;39.72
35918;BME280;22011;59.912;30.300;2023-05-08T05:33:49;103115.56;;;9.14;39.63
35918;BME280;22011;59.912;30.300;2023-05-08T05:36:18;103119.22;;;9.26;39.74
35918;BME280;22011;59.912;30.300;2023-05-08T05:38:46;103118.72;;;9.33;39.95
35918;BME280;22011;59.912;30.300;2023-05-08T05:41:13;103121.16;;;9.36;39.13
35918;BME280;22011;59.912;30.300;2023-05-08T05:43:41;103118.97;;;9.43;39.15
35918;BME280;22011;59.912;30.300;2023-05-08T05:46:09;103123.22;;;9.45;38.75
35918;BME280;22011;59.912;30.300;2023-05-08T05:48:38;103124.31;;;9.56;39.18
35918;BME280;22011;59.912;30.300;2023-05-08T05:51:08;103128.94;;;9.66;38.98
35918;BME280;22011;59.912;30.300;2023-05-08T05:53:36;103131.09;;;9.74;38.63
35918;BME280;22011;59.912;30.300;2023-05-08T05:56:05;103132.59;;;9.78;38.33
35918;BME280;22011;59.912;30.300;2023-05-08T05:58:33;103122.69;;;9.80;38.10
35918;BME280;22011;59.912;30.300;2023-05-08T06:01:00;103127.63;;;9.86;38.59
35918;BME280;22011;59.912;30.300;2023-05-08T06:03:29;103126.66;;;9.87;38.70
35918;BME280;22011;59.912;30.300;2023-05-08T06:05:57;103122.84;;;9.91;38.84
35918;BME280;22011;59.912;30.300;2023-05-08T06:08:26;103121.66;;;9.95;38.41
35918;BME280;22011;59.912;30.300;2023-05-08T06:10:56;103128.84;;;10.07;38.01
35918;BME280;22011;59.912;30.300;2023-05-08T06:13:24;103124.91;;;10.13;38.09
35918;BME280;22011;59.912;30.300;2023-05-08T06:15:53;103128.94;;;10.19;37.85
35918;BME280;22011;59.912;30.300;2023-05-08T06:18:22;103123.34;;;10.23;37.42
35918;BME280;22011;59.912;30.300;2023-05-08T06:20:55;103121.44;;;10.38;37.43
35918;BME280;22011;59.912;30.300;2023-05-08T06:23:22;103132.09;;;10.38;36.85
35918;BME280;22011;59.912;30.300;2023-05-08T06:25:50;103127.38;;;10.41;36.34
35918;BME280;22011;59.912;30.300;2023-05-08T06:28:18;103131.53;;;10.45;35.99
35918;BME280;22011;59.912;30.300;2023-05-08T06:30:47;103121.50;;;10.49;36.07
35918;BME280;22011;59.912;30.300;2023-05-08T06:33:15;103126.84;;;10.49;36.02
35918;BME280;22011;59.912;30.300;2023-05-08T06:35:45;103127.56;;;10.64;35.86
35918;BME280;22011;59.912;30.300;2023-05-08T06:38:12;103126.41;;;10.68;35.37
35918;BME280;22011;59.912;30.300;2023-05-08T06:40:43;103126.28;;;10.82;35.76
35918;BME280;22011;59.912;30.300;2023-05-08T06:43:11;103120.84;;;10.84;35.58
35918;BME280;22011;59.912;30.300;2023-05-08T06:45:42;103127.75;;;10.99;35.62
35918;BME280;22011;59.912;30.300;2023-05-08T06:48:09;103126.03;;;10.98;35.33
35918;BME280;22011;59.912;30.300;2023-05-08T06:50:37;103125.59;;;11.04;34.78
35918;BME280;22011;59.912;30.300;2023-05-08T06:53:05;103126.00;;;11.10;35.13
35918;BME280;22011;59.912;30.300;2023-05-08T06:55:33;103126.75;;;11.12;34.72
35918;BME280;22011;59.912;30.300;2023-05-08T06:58:00;103126.41;;;11.17;34.97
35918;BME280;22011;59.912;30.300;2023-05-08T07:00:42;103128.03;;;11.43;35.55
35918;BME280;22011;59.912;30.300;2023-05-08T07:03:10;103124.25;;;11.22;34.58
35918;BME280;22011;59.912;30.300;2023-05-08T07:05:37;103127.50;;;11.38;33.93
35918;BME280;22011;59.912;30.300;2023-05-08T07:08:05;103125.59;;;11.40;33.65
35918;BME280;22011;59.912;30.300;2023-05-08T07:10:32;103118.78;;;11.47;33.66
35918;BME280;22011;59.912;30.300;2023-05-08T07:13:00;103127.31;;;11.53;32.99
35918;BME280;22011;59.912;30.300;2023-05-08T07:15:30;103123.38;;;11.69;32.73
35918;BME280;22011;59.912;30.300;2023-05-08T07:17:59;103126.25;;;11.79;32.76
35918;BME280;22011;59.912;30.300;2023-05-08T07:20:26;103121.66;;;11.81;32.60
35918;BME280;22011;59.912;30.300;2023-05-08T07:22:54;103124.72;;;11.88;32.31
35918;BME280;22011;59.912;30.300;2023-05-08T07:25:21;103114.63;;;11.91;31.13
35918;BME280;22011;59.912;30.300;2023-05-08T07:27:49;103122.69;;;12.02;31.20
35918;BME280;22011;59.912;30.300;2023-05-08T07:30:16;103131.22;;;12.07;31.39
35918;BME280;22011;59.912;30.300;2023-05-08T07:32:44;103123.22;;;12.19;30.70
35918;BME280;22011;59.912;30.300;2023-05-08T07:35:13;103122.16;;;12.32;30.41
35918;BME280;22011;59.912;30.300;2023-05-08T07:37:40;103117.41;;;12.36;30.54
35918;BME280;22011;59.912;30.300;2023-05-08T07:40:10;103113.41;;;12.41;31.10
35918;BME280;22011;59.912;30.300;2023-05-08T07:42:39;103115.09;;;12.54;31.00
35918;BME280;22011;59.912;30.300;2023-05-08T07:45:08;103110.97;;;12.61;31.39
35918;BME280;22011;59.912;30.300;2023-05-08T07:47:35;103114.13;;;12.66;31.17
35918;BME280;22011;59.912;30.300;2023-05-08T07:50:03;103118.63;;;12.76;31.08
35918;BME280;22011;59.912;30.300;2023-05-08T07:52:32;103107.91;;;12.88;31.62
35918;BME280;22011;59.912;30.300;2023-05-08T07:55:00;103114.38;;;12.85;31.96
35918;BME280;22011;59.912;30.300;2023-05-08T07:57:35;103116.16;;;13.07;32.17
35918;BME280;22011;59.912;30.300;2023-05-08T08:00:03;103111.78;;;13.06;31.21
35918;BME280;22011;59.912;30.300;2023-05-08T08:02:39;103113.00;;;13.13;31.81
35918;BME280;22011;59.912;30.300;2023-05-08T08:05:07;103116.41;;;13.15;31.65
35918;BME280;22011;59.912;30.300;2023-05-08T08:07:36;103120.56;;;13.19;32.07
35918;BME280;22011;59.912;30.300;2023-05-08T08:10:05;103113.94;;;13.34;31.27
35918;BME280;22011;59.912;30.300;2023-05-08T08:12:32;103119.44;;;13.33;30.79
35918;BME280;22011;59.912;30.300;2023-05-08T08:15:00;103112.50;;;13.30;31.78
35918;BME280;22011;59.912;30.300;2023-05-08T08:17:27;103120.50;;;13.41;31.97
35918;BME280;22011;59.912;30.300;2023-05-08T08:19:55;103118.78;;;13.52;31.65
35918;BME280;22011;59.912;30.300;2023-05-08T08:22:23;103122.94;;;13.45;32.19
35918;BME280;22011;59.912;30.300;2023-05-08T08:24:53;103132.09;;;13.63;31.00
35918;BME280;22011;59.912;30.300;2023-05-08T08:27:21;103121.63;;;13.60;30.44
35918;BME280;22011;59.912;30.300;2023-05-08T08:29:49;103124.66;;;13.66;30.59
35918;BME280;22011;59.912;30.300;2023-05-08T08:32:16;103120.34;;;13.75;31.27
35918;BME280;22011;59.912;30.300;2023-05-08T08:34:44;103117.53;;;13.77;28.39
35918;BME280;22011;59.912;30.300;2023-05-08T08:37:11;103123.66;;;13.99;28.55
35918;BME280;22011;59.912;30.300;2023-05-08T08:39:39;103124.16;;;13.93;27.80
35918;BME280;22011;59.912;30.300;2023-05-08T08:42:08;103127.63;;;14.05;28.31
35918;BME280;22011;59.912;30.300;2023-05-08T08:44:37;103120.72;;;14.02;27.56
35918;BME280;22011;59.912;30.300;2023-05-08T08:47:06;103128.75;;;14.02;27.04
35918;BME280;22011;59.912;30.300;2023-05-08T08:49:40;103121.63;;;14.13;27.38
35918;BME280;22011;59.912;30.300;2023-05-08T08:52:14;103128.63;;;14.25;26.84
35918;BME280;22011;59.912;30.300;2023-05-08T08:54:45;103131.28;;;14.25;26.05
35918;BME280;22011;59.912;30.300;2023-05-08T08:57:16;103124.88;;;14.37;25.49
35918;BME280;22011;59.912;30.300;2023-05-08T08:59:45;103107.69;;;14.19;25.26
35918;BME280;22011;59.912;30.300;2023-05-08T09:02:13;103116.44;;;14.21;25.73
35918;BME280;22011;59.912;30.300;2023-05-08T09:04:42;103111.97;;;14.82;27.30
35918;BME280;22011;59.912;30.300;2023-05-08T09:07:10;103109.91;;;14.55;25.92
35918;BME280;22011;59.912;30.300;2023-05-08T09:09:39;103110.75;;;14.56;25.67
35918;BME280;22011;59.912;30.300;2023-05-08T09:12:09;103110.16;;;14.52;25.92
35918;BME280;22011;59.912;30.300;2023-05-08T09:14:39;103113.19;;;14.68;26.27
35918;BME280;22011;59.912;30.300;2023-05-08T09:17:07;103097.47;;;14.54;26.20
35918;BME280;22011;59.912;30.300;2023-05-08T09:19:35;103103.53;;;14.56;26.28
35918;BME280;22011;59.912;30.300;2023-05-08T09:22:03;103109.72;;;14.57;26.27
35918;BME280;22011;59.912;30.300;2023-05-08T09:24:55;103108.91;;;14.96;26.37
35918;BME280;22011;59.912;30.300;2023-05-08T09:27:25;103104.44;;;14.76;26.85
35918;BME280;22011;59.912;30.300;2023-05-08T09:30:02;103106.63;;;14.92;26.97
35918;BME280;22011;59.912;30.300;2023-05-08T09:32:30;103097.25;;;14.77;25.90
35918;BME280;22011;59.912;30.300;2023-05-08T09:34:59;103100.38;;;14.82;26.40
35918;BME280;22011;59.912;30.300;2023-05-08T09:37:27;103104.22;;;14.89;26.65
35918;BME280;22011;59.912;30.300;2023-05-08T09:40:12;103094.28;;;15.29;26.87
35918;BME280;22011;59.912;30.300;2023-05-08T09:42:40;103103.94;;;14.92;26.90
35918;BME280;22011;59.912;30.300;2023-05-08T09:45:10;103100.56;;;14.99;26.79
35918;BME280;22011;59.912;30.300;2023-05-08T09:47:37;103096.53;;;14.75;26.81
35918;BME280;22011;59.912;30.300;2023-05-08T09:50:06;103088.50;;;14.84;26.62
35918;BME280;22011;59.912;30.300;2023-05-08T09:52:35;103095.88;;;14.92;26.85
35918;BME280;22011;59.912;30.300;2023-05-08T09:55:05;103098.00;;;14.88;26.80
35918;BME280;22011;59.912;30.300;2023-05-08T09:57:34;103094.69;;;14.75;27.22
35918;BME280;22011;59.912;30.300;2023-05-08T10:00:05;103083.13;;;14.75;26.84
35918;BME280;22011;59.912;30.300;2023-05-08T10:02:36;103088.06;;;14.79;27.33
35918;BME280;22011;59.912;30.300;2023-05-08T10:05:04;103084.91;;;15.14;27.65
35918;BME280;22011;59.912;30.300;2023-05-08T10:07:48;103081.41;;;14.73;27.29
35918;BME280;22011;59.912;30.300;2023-05-08T10:10:21;103075.69;;;14.97;27.10
35918;BME280;22011;59.912;30.300;2023-05-08T10:12:50;103085.84;;;14.84;26.80
35918;BME280;22011;59.912;30.300;2023-05-08T10:15:19;103080.03;;;14.79;27.01
35918;BME280;22011;59.912;30.300;2023-05-08T10:17:53;103082.47;;;14.92;27.06
35918;BME280;22011;59.912;30.300;2023-05-08T10:20:22;103083.72;;;14.88;27.19
35918;BME280;22011;59.912;30.300;2023-05-08T10:22:52;103067.22;;;14.92;26.97
35918;BME280;22011;59.912;30.300;2023-05-08T10:25:22;103059.19;;;15.02;26.87
35918;BME280;22011;59.912;30.300;2023-05-08T10:27:54;103072.06;;;15.27;26.77
35918;BME280;22011;59.912;30.300;2023-05-08T10:30:24;103053.00;;;15.40;25.75
35918;BME280;22011;59.912;30.300;2023-05-08T10:32:54;103069.13;;;15.40;26.25
35918;BME280;22011;59.912;30.300;2023-05-08T10:35:24;103058.78;;;15.26;26.61
35918;BME280;22011;59.912;30.300;2023-05-08T10:37:52;103061.03;;;15.11;26.42
35918;BME280;22011;59.912;30.300;2023-05-08T10:40:21;103054.81;;;15.20;26.63
35918;BME280;22011;59.912;30.300;2023-05-08T10:42:49;103046.06;;;15.18;26.55
35918;BME280;22011;59.912;30.300;2023-05-08T10:45:17;103053.56;;;15.24;26.08
35918;BME280;22011;59.912;30.300;2023-05-08T10:47:52;103053.13;;;15.38;26.67
35918;BME280;22011;59.912;30.300;2023-05-08T10:50:41;103043.94;;;15.51;25.76
35918;BME280;22011;59.912;30.300;2023-05-08T10:53:12;103046.91;;;15.28;25.69
35918;BME280;22011;59.912;30.300;2023-05-08T10:55:44;103041.69;;;15.36;25.59
35918;BME280;22011;59.912;30.300;2023-05-08T10:58:14;103039.13;;;15.25;25.09
35918;BME280;22011;59.912;30.300;2023-05-08T11:01:13;103040.72;;;15.57;25.26
35918;BME280;22011;59.912;30.300;2023-05-08T11:03:43;103036.03;;;15.30;25.14
35918;BME280;22011;59.912;30.300;2023-05-08T11:06:13;103032.06;;;15.34;25.23
35918;BME280;22011;59.912;30.300;2023-05-08T11:08:48;103026.13;;;15.50;25.51
35918;BME280;22011;59.912;30.300;2023-05-08T11:11:23;103029.25;;;15.45;25.79
35918;BME280;22011;59.912;30.300;2023-05-08T11:13:58;103022.47;;;15.41;25.18
35918;BME280;22011;59.912;30.300;2023-05-08T11:17:03;103025.41;;;15.67;25.30
35918;BME280;22011;59.912;30.300;2023-05-08T11:19:32;103023.88;;;15.35;24.94
35918;BME280;22011;59.912;30.300;2023-05-08T11:22:15;103027.00;;;15.60;24.83
35918;BME280;22011;59.912;30.300;2023-05-08T11:24:47;103025.28;;;15.40;25.48
35918;BME280;22011;59.912;30.300;2023-05-08T11:27:15;103023.72;;;15.37;25.34
35918;BME280;22011;59.912;30.300;2023-05-08T11:29:42;103026.56;;;15.35;25.21
35918;BME280;22011;59.912;30.300;2023-05-08T11:32:10;103024.28;;;15.50;24.82
35918;BME280;22011;59.912;30.300;2023-05-08T11:34:44;103013.97;;;15.65;24.78
35918;BME280;22011;59.912;30.300;2023-05-08T11:37:18;103026.38;;;15.76;24.53
35918;BME280;22011;59.912;30.300;2023-05-08T11:39:46;103019.34;;;15.55;24.83
35918;BME280;22011;59.912;30.300;2023-05-08T11:42:34;103018.88;;;15.79;25.12
35918;BME280;22011;59.912;30.300;2023-05-08T11:45:06;103020.19;;;15.56;25.26
35918;BME280;22011;59.912;30.300;2023-05-08T11:47:36;103018.50;;;15.55;24.87
35918;BME280;22011;59.912;30.300;2023-05-08T11:50:06;103010.44;;;15.55;24.52
35918;BME280;22011;59.912;30.300;2023-05-08T11:52:36;103013.84;;;15.57;24.94
35918;BME280;22011;59.912;30.300;2023-05-08T11:55:04;103007.69;;;15.93;25.45
35918;BME280;22011;59.912;30.300;2023-05-08T11:57:32;103013.41;;;15.52;25.09
35918;BME280;22011;59.912;30.300;2023-05-08T12:00:03;103007.19;;;15.61;25.12
35918;BME280;22011;59.912;30.300;2023-05-08T12:02:36;103015.06;;;15.72;24.76
35918;BME280;22011;59.912;30.300;2023-05-08T12:05:05;103007.72;;;15.74;24.58
35918;BME280;22011;59.912;30.300;2023-05-08T12:07:32;102995.06;;;15.57;24.75
35918;BME280;22011;59.912;30.300;2023-05-08T12:10:01;103001.53;;;15.54;24.87
35918;BME280;22011;59.912;30.300;2023-05-08T12:12:36;103003.91;;;15.67;25.21
35918;BME280;22011;59.912;30.300;2023-05-08T12:15:07;103004.34;;;15.53;25.53
35918;BME280;22011;59.912;30.300;2023-05-08T12:17:35;102989.94;;;15.25;25.42
35918;BME280;22011;59.912;30.300;2023-05-08T12:20:09;102992.63;;;15.34;25.80
35918;BME280;22011;59.912;30.300;2023-05-08T12:22:37;102992.34;;;15.18;25.82
35918;BME280;22011;59.912;30.300;2023-05-08T12:25:08;102989.66;;;15.28;25.97
35918;BME280;22011;59.912;30.300;2023-05-08T12:27:36;102987.69;;;15.20;26.12
35918;BME280;22011;59.912;30.300;2023-05-08T12:30:05;102992.91;;;15.12;26.07
35918;BME280;22011;59.912;30.300;2023-05-08T12:32:35;102988.25;;;15.14;26.18
35918;BME280;22011;59.912;30.300;2023-05-08T12:35:03;102989.38;;;15.02;26.18
35918;BME280;22011;59.912;30.300;2023-05-08T12:37:31;102980.19;;;15.04;26.10
35918;BME280;22011;59.912;30.300;2023-05-08T12:39:58;102980.06;;;15.06;26.48
35918;BME280;22011;59.912;30.300;2023-05-08T12:42:43;102973.97;;;15.33;26.38
35918;BME280;22011;59.912;30.300;2023-05-08T12:45:17;102965.22;;;15.21;26.02
35918;BME280;22011;59.912;30.300;2023-05-08T12:47:45;102968.47;;;15.05;26.92
35918;BME280;22011;59.912;30.300;2023-05-08T12:50:14;102965.06;;;14.94;26.36
35918;BME280;22011;59.912;30.300;2023-05-08T12:52:41;102961.69;;;14.92;26.46
35918;BME280;22011;59.912;30.300;2023-05-08T12:55:26;102960.56;;;15.23;26.42
35918;BME280;22011;59.912;30.300;2023-05-08T12:58:02;102960.00;;;15.10;26.97
35918;BME280;22011;59.912;30.300;2023-05-08T13:00:34;102951.78;;;15.02;26.36
35918;BME280;22011;59.912;30.300;2023-05-08T13:03:03;102958.13;;;14.91;26.87
35918;BME280;22011;59.912;30.300;2023-05-08T13:05:31;102950.78;;;14.84;26.17